createdAt,value
2023-07-09T00:01:45.769Z,1.30
2023-07-09T00:04:12.627Z,1.40
2023-07-09T00:06:40.194Z,1.30
2023-07-09T00:09:07.505Z,1.10
2023-07-09T00:11:34.156Z,1.48
2023-07-09T00:14:00.813Z,1.77
2023-07-09T00:16:27.477Z,1.33
2023-07-09T00:18:54.150Z,1.48
2023-07-09T00:21:21.630Z,1.13
2023-07-09T00:23:48.194Z,1.27
2023-07-09T00:26:15.021Z,1.73
2023-07-09T00:28:42.541Z,1.50
2023-07-09T00:31:18.036Z,1.35
2023-07-09T00:33:44.814Z,1.23
2023-07-09T00:36:35.637Z,1.42
2023-07-09T00:39:02.463Z,1.48
2023-07-09T00:41:29.015Z,1.52
2023-07-09T00:43:55.609Z,1.35
2023-07-09T00:46:22.116Z,1.40
2023-07-09T00:48:50.428Z,1.52
2023-07-09T00:51:18.499Z,1.70
2023-07-09T00:53:45.956Z,1.48
2023-07-09T00:56:17.688Z,1.27
2023-07-09T00:58:44.347Z,1.60
2023-07-09T01:01:12.003Z,1.48
2023-07-09T01:03:41.690Z,1.20
2023-07-09T01:06:08.304Z,1.63
2023-07-09T01:08:36.024Z,1.50
2023-07-09T01:11:02.709Z,1.23
2023-07-09T01:13:29.357Z,1.52
2023-07-09T01:15:56.078Z,1.10
2023-07-09T01:18:22.731Z,1.40
2023-07-09T01:20:49.312Z,1.65
2023-07-09T01:23:15.903Z,1.23
2023-07-09T01:25:47.229Z,1.50
2023-07-09T01:28:13.820Z,1.20
2023-07-09T01:30:41.531Z,1.30
2023-07-09T01:33:08.184Z,1.58
2023-07-09T01:35:35.923Z,1.27
2023-07-09T01:38:02.578Z,1.40
2023-07-09T01:40:32.547Z,1.10
2023-07-09T01:43:01.234Z,1.30
2023-07-09T01:45:28.455Z,1.45
2023-07-09T01:47:55.242Z,1.52
2023-07-09T01:50:21.869Z,1.60
2023-07-09T01:52:48.462Z,1.58
2023-07-09T01:55:15.158Z,1.38
2023-07-09T01:57:41.779Z,1.52
2023-07-09T02:00:13.931Z,1.30
2023-07-09T02:02:44.274Z,1.33
2023-07-09T02:05:11.608Z,1.52
2023-07-09T02:07:38.154Z,1.50
2023-07-09T02:10:04.984Z,1.40
2023-07-09T02:12:31.568Z,1.25
2023-07-09T02:14:58.176Z,1.50
2023-07-09T02:17:24.919Z,1.60
2023-07-09T02:19:51.482Z,1.45
2023-07-09T02:22:18.109Z,1.20
2023-07-09T02:24:44.655Z,1.45
2023-07-09T02:27:11.402Z,1.30
2023-07-09T02:29:38.196Z,1.60
2023-07-09T02:32:05.170Z,1.20
2023-07-09T02:34:31.870Z,1.17
2023-07-09T02:36:59.370Z,1.20
2023-07-09T02:39:26.208Z,1.30
2023-07-09T02:41:52.804Z,1.40
2023-07-09T02:44:19.411Z,1.23
2023-07-09T02:46:46.170Z,1.85
2023-07-09T02:49:13.481Z,1.40
2023-07-09T02:51:40.144Z,1.25
2023-07-09T02:54:06.788Z,1.30
2023-07-09T02:56:33.395Z,1.45
2023-07-09T02:58:59.972Z,1.52
2023-07-09T03:01:26.549Z,1.33
2023-07-09T03:03:53.836Z,1.25
2023-07-09T03:06:21.693Z,1.65
2023-07-09T03:08:48.391Z,1.35
2023-07-09T03:11:15.346Z,1.10
2023-07-09T03:13:41.923Z,1.60
2023-07-09T03:16:08.585Z,1.25
2023-07-09T03:18:35.158Z,1.40
2023-07-09T03:21:01.750Z,1.10
2023-07-09T03:23:28.327Z,0.95
2023-07-09T03:25:55.856Z,1.42
2023-07-09T03:28:22.507Z,1.63
2023-07-09T03:30:49.222Z,1.20
2023-07-09T03:33:16.656Z,1.10
2023-07-09T03:35:43.507Z,1.60
2023-07-09T03:38:10.477Z,0.95
2023-07-09T03:40:37.146Z,1.30
2023-07-09T03:43:03.695Z,1.50
2023-07-09T03:45:30.898Z,1.20
2023-07-09T03:47:57.543Z,1.10
2023-07-09T03:50:24.185Z,1.27
2023-07-09T03:52:50.801Z,1.70
2023-07-09T03:55:17.375Z,1.10
2023-07-09T03:57:43.944Z,1.30
2023-07-09T04:00:10.840Z,1.38
2023-07-09T04:02:40.705Z,1.30
2023-07-09T04:05:07.983Z,1.25
2023-07-09T04:07:34.580Z,1.20
2023-07-09T04:10:01.133Z,1.30
2023-07-09T04:12:27.774Z,1.20
2023-07-09T04:14:54.353Z,1.40
2023-07-09T04:17:20.991Z,1.70
2023-07-09T04:19:47.589Z,1.30
2023-07-09T04:22:14.204Z,1.40
2023-07-09T04:24:40.805Z,1.40
2023-07-09T04:27:07.508Z,1.38
2023-07-09T04:29:34.159Z,1.20
2023-07-09T04:32:01.271Z,1.48
2023-07-09T04:34:27.949Z,1.27
2023-07-09T04:36:54.492Z,1.30
2023-07-09T04:39:21.085Z,1.30
2023-07-09T04:41:48.371Z,1.20
2023-07-09T04:44:15.158Z,1.02
2023-07-09T04:46:41.823Z,1.23
2023-07-09T04:49:08.511Z,1.20
2023-07-09T04:51:35.064Z,1.17
2023-07-09T04:54:01.636Z,1.40
2023-07-09T04:56:28.273Z,1.40
2023-07-09T04:58:54.875Z,1.20
2023-07-09T05:01:21.494Z,1.45
2023-07-09T05:03:48.114Z,1.45
2023-07-09T05:06:14.923Z,1.40
2023-07-09T05:08:41.478Z,1.50
2023-07-09T05:11:08.088Z,1.52
2023-07-09T05:13:34.745Z,1.30
2023-07-09T05:16:01.774Z,1.58
2023-07-09T05:18:28.711Z,1.33
2023-07-09T05:20:55.772Z,1.25
2023-07-09T05:23:22.344Z,1.30
2023-07-09T05:25:48.958Z,1.30
2023-07-09T05:28:15.562Z,1.25
2023-07-09T05:30:43.254Z,1.50
2023-07-09T05:33:09.944Z,1.52
2023-07-09T05:35:36.595Z,1.27
2023-07-09T05:38:03.257Z,1.50
2023-07-09T05:40:29.870Z,1.08
2023-07-09T05:42:56.517Z,1.52
2023-07-09T05:45:23.097Z,1.40
2023-07-09T05:47:49.664Z,1.40
2023-07-09T05:50:16.406Z,1.20
2023-07-09T05:52:42.998Z,1.23
2023-07-09T05:55:09.824Z,1.50
2023-07-09T05:57:36.349Z,1.13
2023-07-09T06:00:02.992Z,1.50
2023-07-09T06:02:29.638Z,1.60
2023-07-09T06:04:56.255Z,1.17
2023-07-09T06:07:22.982Z,1.58
2023-07-09T06:09:49.628Z,1.50
2023-07-09T06:12:16.197Z,1.15
2023-07-09T06:14:42.851Z,1.63
2023-07-09T06:17:09.524Z,1.52
2023-07-09T06:19:36.180Z,1.50
2023-07-09T06:22:02.757Z,1.65
2023-07-09T06:24:29.372Z,2.25
2023-07-09T06:26:55.983Z,1.50
2023-07-09T06:29:22.532Z,1.52
2023-07-09T06:31:49.121Z,1.45
2023-07-09T06:34:15.745Z,1.35
2023-07-09T06:36:44.308Z,1.30
2023-07-09T06:39:11.257Z,1.67
2023-07-09T06:41:37.831Z,1.40
2023-07-09T06:44:04.462Z,1.52
2023-07-09T06:46:31.066Z,1.52
2023-07-09T06:48:57.734Z,1.48
2023-07-09T06:51:24.317Z,1.58
2023-07-09T06:53:50.887Z,1.60
2023-07-09T06:56:17.817Z,1.50
2023-07-09T06:58:44.474Z,1.90
2023-07-09T07:01:11.086Z,1.60
2023-07-09T07:03:37.835Z,1.60
2023-07-09T07:06:04.941Z,1.40
2023-07-09T07:08:31.758Z,2.45
2023-07-09T07:11:00.605Z,1.55
2023-07-09T07:13:30.249Z,1.73
2023-07-09T07:15:57.189Z,1.67
2023-07-09T07:18:23.801Z,2.20
2023-07-09T07:20:50.543Z,1.52
2023-07-09T07:23:17.150Z,1.88
2023-07-09T07:25:50.054Z,1.67
2023-07-09T07:28:16.806Z,1.42
2023-07-09T07:30:43.575Z,2.05
2023-07-09T07:33:10.137Z,2.40
2023-07-09T07:35:36.779Z,2.40
2023-07-09T07:38:03.711Z,1.77
2023-07-09T07:40:30.388Z,1.95
2023-07-09T07:42:56.969Z,2.00
2023-07-09T07:45:23.550Z,2.30
2023-07-09T07:47:50.153Z,1.75
2023-07-09T07:50:16.738Z,2.10
2023-07-09T07:52:43.338Z,2.03
2023-07-09T07:55:13.366Z,1.80
2023-07-09T07:57:42.424Z,2.03
2023-07-09T08:00:09.520Z,2.10
2023-07-09T08:02:36.317Z,2.08
2023-07-09T08:05:02.916Z,1.65
2023-07-09T08:07:29.531Z,2.35
2023-07-09T08:09:56.143Z,1.73
2023-07-09T08:12:22.685Z,1.92
2023-07-09T08:14:49.315Z,2.10
2023-07-09T08:17:15.970Z,1.73
2023-07-09T08:19:55.215Z,2.33
2023-07-09T08:22:22.154Z,2.00
2023-07-09T08:24:49.400Z,2.22
2023-07-09T08:27:15.976Z,2.22
2023-07-09T08:29:42.693Z,2.35
2023-07-09T08:32:10.228Z,2.30
2023-07-09T08:34:50.123Z,2.03
2023-07-09T08:37:26.795Z,2.25
2023-07-09T08:39:53.349Z,2.15
2023-07-09T08:42:26.653Z,2.03
2023-07-09T08:45:15.009Z,2.33
2023-07-09T08:48:04.250Z,2.33
2023-07-09T08:50:37.697Z,2.00
2023-07-09T08:53:04.260Z,2.20
2023-07-09T08:55:30.842Z,2.10
2023-07-09T08:58:02.195Z,1.98
2023-07-09T09:00:32.933Z,2.60
2023-07-09T09:03:01.556Z,2.03
2023-07-09T09:05:28.316Z,2.22
2023-07-09T09:07:59.676Z,2.08
2023-07-09T09:10:34.602Z,2.70
2023-07-09T09:13:12.757Z,1.98
2023-07-09T09:15:44.336Z,2.72
2023-07-09T09:18:23.013Z,2.13
2023-07-09T09:21:04.594Z,2.55
2023-07-09T09:23:40.435Z,2.50
2023-07-09T09:26:14.525Z,2.22
2023-07-09T09:28:41.135Z,2.40
2023-07-09T09:31:11.728Z,3.30
2023-07-09T09:33:45.010Z,2.83
2023-07-09T09:36:22.709Z,2.13
2023-07-09T09:38:49.355Z,2.55
2023-07-09T09:41:20.346Z,2.42
2023-07-09T09:43:47.942Z,2.42
2023-07-09T09:46:19.061Z,2.40
2023-07-09T09:52:14.806Z,2.40
2023-07-09T09:54:42.581Z,2.72
2023-07-09T09:57:20.523Z,2.03
2023-07-09T09:59:47.408Z,2.45
2023-07-09T10:02:25.384Z,2.10
2023-07-09T10:04:52.401Z,2.55
2023-07-09T10:07:28.531Z,2.67
2023-07-09T10:09:55.619Z,2.17
2023-07-09T10:12:47.059Z,3.03
2023-07-09T10:15:38.928Z,2.78
2023-07-09T10:18:24.344Z,2.47
2023-07-09T10:21:25.185Z,2.53
2023-07-09T10:24:21.039Z,2.28
2023-07-09T10:26:49.424Z,2.38
2023-07-09T10:29:33.300Z,2.53
2023-07-09T10:32:25.174Z,2.55
2023-07-09T10:35:08.859Z,2.60
2023-07-09T10:37:45.301Z,2.53
2023-07-09T10:40:14.139Z,2.47
2023-07-09T10:42:49.070Z,2.15
2023-07-09T10:47:52.563Z,2.03
2023-07-09T10:50:34.610Z,2.60
2023-07-09T10:53:42.675Z,2.60
2023-07-09T10:56:21.628Z,2.50
2023-07-09T10:58:52.210Z,2.75
2023-07-09T11:01:18.851Z,2.65
2023-07-09T11:03:53.118Z,2.35
2023-07-09T11:06:27.564Z,2.45
2023-07-09T11:08:54.285Z,2.80
2023-07-09T11:11:26.512Z,2.33
2023-07-09T11:13:55.422Z,2.60
2023-07-09T11:16:29.953Z,2.42
2023-07-09T11:18:59.237Z,2.10
2023-07-09T11:21:25.966Z,2.63
2023-07-09T11:23:58.788Z,2.75
2023-07-09T11:26:30.085Z,2.58
2023-07-09T11:29:03.584Z,2.65
2023-07-09T11:31:40.586Z,2.30
2023-07-09T11:34:07.047Z,2.60
2023-07-09T11:36:33.718Z,2.67
2023-07-09T11:39:01.634Z,2.38
2023-07-09T11:41:44.342Z,2.75
2023-07-09T11:44:15.924Z,2.20
2023-07-09T11:47:20.241Z,2.70
2023-07-09T11:49:48.315Z,2.70
2023-07-09T11:52:14.912Z,2.60
2023-07-09T11:54:42.389Z,2.55
2023-07-09T11:57:12.715Z,2.65
2023-07-09T11:59:42.660Z,2.70
2023-07-09T12:02:18.762Z,2.42
2023-07-09T12:04:45.320Z,2.10
2023-07-09T12:07:14.043Z,2.17
2023-07-09T12:09:43.149Z,2.45
2023-07-09T12:12:25.872Z,2.28
2023-07-09T12:14:52.491Z,2.42
2023-07-09T12:17:19.341Z,2.00
2023-07-09T12:19:45.917Z,2.47
2023-07-09T12:22:20.600Z,2.40
2023-07-09T12:24:48.404Z,2.53
2023-07-09T12:27:20.283Z,2.53
2023-07-09T12:29:46.840Z,2.50
2023-07-09T12:32:15.523Z,2.10
2023-07-09T12:34:42.112Z,2.38
2023-07-09T12:37:13.157Z,2.25
2023-07-09T12:39:39.735Z,2.40
2023-07-09T12:42:06.406Z,2.45
2023-07-09T12:44:36.409Z,2.38
2023-07-09T12:47:03.066Z,2.40
2023-07-09T12:49:31.098Z,2.60
2023-07-09T12:52:02.331Z,2.83
2023-07-09T12:54:31.681Z,2.30
2023-07-09T12:57:00.181Z,2.50
2023-07-09T12:59:38.453Z,2.53
2023-07-09T13:02:20.179Z,2.85
2023-07-09T13:04:47.079Z,2.72
2023-07-09T13:07:22.974Z,2.83
2023-07-09T13:09:53.266Z,2.67
2023-07-09T13:12:20.795Z,2.47
2023-07-09T13:14:54.646Z,4.60
2023-07-09T13:17:21.225Z,3.13
2023-07-09T13:19:47.805Z,3.10
2023-07-09T13:22:15.300Z,3.08
2023-07-09T13:24:41.851Z,2.95
2023-07-09T13:27:12.552Z,2.35
2023-07-09T13:29:39.115Z,2.30
2023-07-09T13:32:13.129Z,2.55
2023-07-09T13:34:39.734Z,2.70
2023-07-09T13:37:07.079Z,2.40
2023-07-09T13:39:33.645Z,2.38
2023-07-09T13:42:00.233Z,2.55
2023-07-09T13:44:28.836Z,2.47
2023-07-09T13:46:56.198Z,2.40
2023-07-09T13:49:25.306Z,2.88
2023-07-09T13:54:21.419Z,2.55
2023-07-09T13:56:48.035Z,2.50
2023-07-09T13:59:22.202Z,3.20
2023-07-09T14:01:49.804Z,2.83
2023-07-09T14:04:17.048Z,2.83
2023-07-09T14:06:43.801Z,5.65
2023-07-09T14:09:13.989Z,3.00
2023-07-09T14:11:50.106Z,4.43
2023-07-09T14:14:25.005Z,2.80
2023-07-09T14:19:20.105Z,2.92
2023-07-09T14:21:47.324Z,2.55
2023-07-09T14:24:25.513Z,2.13
2023-07-09T14:26:53.075Z,2.50
2023-07-09T14:29:19.766Z,2.25
2023-07-09T14:31:47.037Z,2.05
2023-07-09T14:34:25.096Z,2.92
2023-07-09T14:36:54.003Z,2.53
2023-07-09T14:39:20.735Z,2.35
2023-07-09T14:41:47.303Z,2.50
2023-07-09T14:44:21.316Z,3.00
2023-07-09T14:46:47.912Z,2.40
2023-07-09T14:49:14.491Z,2.30
2023-07-09T14:51:41.660Z,2.55
2023-07-09T14:54:20.452Z,2.88
2023-07-09T14:56:49.429Z,2.67
2023-07-09T14:59:16.034Z,2.72
2023-07-09T15:01:42.618Z,2.90
2023-07-09T15:04:32.206Z,2.30
2023-07-09T15:06:59.224Z,3.03
2023-07-09T15:09:27.299Z,2.65
2023-07-09T15:11:55.274Z,2.75
2023-07-09T15:14:22.019Z,2.65
2023-07-09T15:16:49.184Z,2.88
2023-07-09T15:19:16.343Z,2.72
2023-07-09T15:21:42.956Z,2.72
2023-07-09T15:24:31.449Z,2.95
2023-07-09T15:26:58.083Z,2.88
2023-07-09T15:29:25.504Z,3.60
2023-07-09T15:31:52.183Z,2.72
2023-07-09T15:34:18.828Z,2.78
2023-07-09T15:36:47.158Z,3.42
2023-07-09T15:39:15.035Z,2.95
2023-07-09T15:41:41.757Z,3.10
2023-07-09T15:44:16.920Z,2.80
2023-07-09T15:46:54.438Z,2.53
2023-07-09T15:49:21.273Z,2.30
2023-07-09T15:51:48.184Z,2.72
2023-07-09T15:54:21.898Z,2.60
2023-07-09T15:56:49.046Z,2.38
2023-07-09T15:59:29.086Z,2.22
2023-07-09T16:01:55.834Z,2.65
2023-07-09T16:04:22.527Z,2.50
2023-07-09T16:06:49.185Z,2.70
2023-07-09T16:09:15.809Z,2.47
2023-07-09T16:11:52.626Z,2.72
2023-07-09T16:14:21.966Z,2.80
2023-07-09T16:16:49.107Z,2.67
2023-07-09T16:19:15.697Z,2.67
2023-07-09T16:21:42.364Z,2.60
2023-07-09T16:24:20.388Z,2.70
2023-07-09T16:26:46.995Z,2.70
2023-07-09T16:29:23.435Z,2.20
2023-07-09T16:31:52.718Z,2.45
2023-07-09T16:34:20.354Z,2.88
2023-07-09T16:36:46.909Z,2.65
2023-07-09T16:39:42.972Z,3.22
2023-07-09T16:42:11.440Z,2.40
2023-07-09T16:44:38.050Z,2.78
2023-07-09T16:47:10.900Z,3.08
2023-07-09T16:49:38.803Z,3.20
2023-07-09T16:52:13.891Z,3.45
2023-07-09T16:54:40.495Z,2.70
2023-07-09T16:57:22.396Z,2.75
2023-07-09T16:59:49.584Z,2.80
2023-07-09T17:02:30.614Z,2.80
2023-07-09T17:04:58.827Z,3.40
2023-07-09T17:07:25.385Z,2.70
2023-07-09T17:09:53.806Z,2.47
2023-07-09T17:12:20.374Z,3.03
2023-07-09T17:14:46.976Z,2.88
2023-07-09T17:17:20.956Z,2.75
2023-07-09T17:19:47.632Z,3.10
2023-07-09T17:22:18.245Z,2.88
2023-07-09T17:24:44.890Z,2.95
2023-07-09T17:27:11.516Z,2.92
2023-07-09T17:29:41.357Z,2.70
2023-07-09T17:32:08.176Z,3.33
2023-07-09T17:34:34.907Z,2.90
2023-07-09T17:37:01.540Z,2.88
2023-07-09T17:39:28.179Z,2.65
2023-07-09T17:41:54.793Z,3.38
2023-07-09T17:44:22.801Z,3.13
2023-07-09T17:46:51.751Z,2.92
2023-07-09T17:49:32.795Z,3.15
2023-07-09T17:51:59.528Z,3.00
2023-07-09T17:54:26.992Z,3.17
2023-07-09T17:56:55.070Z,3.20
2023-07-09T17:59:23.715Z,3.13
2023-07-09T18:02:14.460Z,3.30
2023-07-09T18:04:41.053Z,2.92
2023-07-09T18:07:21.830Z,3.10
2023-07-09T18:09:48.509Z,3.30
2023-07-09T18:12:17.437Z,3.45
2023-07-09T18:14:44.815Z,3.00
2023-07-09T18:17:27.398Z,3.40
2023-07-09T18:19:53.981Z,2.83
2023-07-09T18:22:21.632Z,3.38
2023-07-09T18:24:48.403Z,4.00
2023-07-09T18:27:32.933Z,3.67
2023-07-09T18:29:59.606Z,3.75
2023-07-09T18:32:27.171Z,2.97
2023-07-09T18:34:59.003Z,3.17
2023-07-09T18:37:25.631Z,3.42
2023-07-09T18:39:52.224Z,3.25
2023-07-09T18:42:20.421Z,3.35
2023-07-09T18:44:47.155Z,3.10
2023-07-09T18:47:15.047Z,3.33
2023-07-09T18:49:41.716Z,3.10
2023-07-09T18:52:18.958Z,3.35
2023-07-09T18:54:47.175Z,3.17
2023-07-09T18:57:14.710Z,3.33
2023-07-09T18:59:41.479Z,3.50
2023-07-09T19:02:19.212Z,3.42
2023-07-09T19:04:45.967Z,3.05
2023-07-09T19:07:13.463Z,2.90
2023-07-09T19:09:40.147Z,2.97
2023-07-09T19:12:07.125Z,2.40
2023-07-09T19:14:33.956Z,2.53
2023-07-09T19:17:02.259Z,2.35
2023-07-09T19:19:29.022Z,2.90
2023-07-09T19:21:56.066Z,2.60
2023-07-09T19:24:27.541Z,2.53
2023-07-09T19:26:54.886Z,2.83
2023-07-09T19:29:22.380Z,2.83
2023-07-09T19:31:51.076Z,2.50
2023-07-09T19:34:22.509Z,2.92
2023-07-09T19:36:49.860Z,2.45
2023-07-09T19:39:34.909Z,2.58
2023-07-09T19:42:15.499Z,2.63
2023-07-09T19:44:42.143Z,2.97
2023-07-09T19:47:17.899Z,2.83
2023-07-09T19:49:44.649Z,2.20
2023-07-09T19:52:14.710Z,2.70
2023-07-09T19:54:42.120Z,2.15
2023-07-09T19:57:08.639Z,2.08
2023-07-09T19:59:35.296Z,2.30
2023-07-09T20:02:01.933Z,2.00
2023-07-09T20:04:28.511Z,1.83
2023-07-09T20:06:55.062Z,1.25
2023-07-09T20:09:21.673Z,1.05
2023-07-09T20:11:50.088Z,1.23
2023-07-09T20:14:18.954Z,1.42
2023-07-09T20:16:45.636Z,1.10
2023-07-09T20:19:13.260Z,1.00
2023-07-09T20:21:40.050Z,1.55
2023-07-09T20:24:24.902Z,1.38
2023-07-09T20:26:51.451Z,1.20
2023-07-09T20:29:18.655Z,1.38
2023-07-09T20:31:46.318Z,1.33
2023-07-09T20:34:20.550Z,1.35
2023-07-09T20:36:47.541Z,1.40
2023-07-09T20:39:19.298Z,1.35
2023-07-09T20:41:46.085Z,1.70
2023-07-09T20:44:27.014Z,1.20
2023-07-09T20:46:53.864Z,1.33
2023-07-09T20:49:28.930Z,1.23
2023-07-09T20:51:55.857Z,1.63
2023-07-09T20:54:22.463Z,1.33
2023-07-09T20:56:49.116Z,1.60
2023-07-09T20:59:19.139Z,1.80
2023-07-09T21:01:46.235Z,1.60
2023-07-09T21:04:15.031Z,1.95
2023-07-09T21:06:41.912Z,1.50
2023-07-09T21:09:28.484Z,1.85
2023-07-09T21:11:55.053Z,2.08
2023-07-09T21:14:21.672Z,2.10
2023-07-09T21:16:49.042Z,2.25
2023-07-09T21:19:47.910Z,2.35
2023-07-09T21:24:41.498Z,2.25
2023-07-09T21:27:08.165Z,2.70
2023-07-09T21:29:34.795Z,2.50
2023-07-09T21:32:06.640Z,2.40
2023-07-09T21:34:33.993Z,2.53
2023-07-09T21:37:02.944Z,3.42
2023-07-09T21:39:31.254Z,3.15
2023-07-09T21:41:57.969Z,3.00
2023-07-09T21:44:26.359Z,2.40
2023-07-09T21:47:02.079Z,2.83
2023-07-09T21:49:29.800Z,2.38
2023-07-09T21:51:56.438Z,2.58
2023-07-09T21:57:04.689Z,2.70
2023-07-09T21:59:31.936Z,2.47
2023-07-09T22:02:00.381Z,2.50
2023-07-09T22:04:36.754Z,3.03
2023-07-09T22:07:24.380Z,3.05
2023-07-09T22:09:52.894Z,2.70
2023-07-09T22:12:19.542Z,2.45
2023-07-09T22:14:47.613Z,2.95
2023-07-09T22:17:14.172Z,2.53
2023-07-09T22:19:45.113Z,2.40
2023-07-09T22:22:12.124Z,2.15
2023-07-09T22:24:38.688Z,2.20
2023-07-09T22:27:06.525Z,2.30
2023-07-09T22:29:33.098Z,2.35
2023-07-09T22:31:59.693Z,2.42
2023-07-09T22:34:26.393Z,2.30
2023-07-09T22:36:52.982Z,2.70
2023-07-09T22:39:19.526Z,2.50
2023-07-09T22:41:46.479Z,2.58
2023-07-09T22:44:13.649Z,2.88
2023-07-09T22:46:43.906Z,2.63
2023-07-09T22:49:16.951Z,2.35
2023-07-09T22:51:43.588Z,2.55
2023-07-09T22:54:13.422Z,3.00
2023-07-09T22:56:40.060Z,2.60
2023-07-09T22:59:06.653Z,2.45
2023-07-09T23:01:33.272Z,2.38
2023-07-09T23:04:00.107Z,2.85
2023-07-09T23:06:27.403Z,2.13
2023-07-09T23:08:55.286Z,1.88
2023-07-09T23:11:27.487Z,1.90
2023-07-09T23:13:54.227Z,2.97
2023-07-09T23:16:25.968Z,2.30
2023-07-09T23:18:52.730Z,1.92
2023-07-09T23:21:23.576Z,2.28
2023-07-09T23:23:51.348Z,2.35
2023-07-09T23:26:17.990Z,2.28
2023-07-09T23:28:44.543Z,2.00
2023-07-09T23:31:26.525Z,2.70
2023-07-09T23:33:53.689Z,2.25
2023-07-09T23:36:20.400Z,2.10
2023-07-09T23:38:47.000Z,2.60
2023-07-09T23:41:24.605Z,2.60
2023-07-09T23:43:51.215Z,2.22
2023-07-09T23:46:17.793Z,2.53
2023-07-09T23:48:48.931Z,2.22
2023-07-09T23:51:18.243Z,2.47
2023-07-09T23:53:44.788Z,2.38
2023-07-09T23:56:17.342Z,2.33
2023-07-09T23:58:43.906Z,2.15
